Time;durP1;ratioP1;P1;durP2;ratioP2;P2;SDS_P1;SDS_P2;PMS_P1;PMS_P2;Temp;Humidity;BMP_temperature;BMP_pressure;BME280_temperature;BME280_humidity;BME280_pressure;Samples;Min_cycle;Max_cycle;Signal;HPM_P1;HPM_P2
2023/09/05 00:02:15;;;;;;;3.03;2.63;;;;;;;;;;6241558;23;20054;-85
2023/09/05 00:04:42;;;;;;;2.65;2.42;;;;;;;;;;6214696;23;20016;-85
2023/09/05 00:07:09;;;;;;;3.20;2.47;;;;;;;;;;6241792;23;20012;-84
2023/09/05 00:09:36;;;;;;;3.15;2.40;;;;;;;;;;6243001;23;20020;-85
2023/09/05 00:12:02;;;;;;;6.50;2.38;;;;;;;;;;6242527;23;20015;-84
2023/09/05 00:14:28;;;;;;;3.30;2.25;;;;;;;;;;6215103;23;20020;-86
2023/09/05 00:16:54;;;;;;;3.22;2.33;;;;;;;;;;6242520;23;20008;-85
2023/09/05 00:19:20;;;;;;;3.97;2.45;;;;;;;;;;6214357;23;20012;-84
2023/09/05 00:21:46;;;;;;;2.88;2.30;;;;;;;;;;6215938;23;20063;-85
2023/09/05 00:24:25;;;;;;;3.42;2.53;;;;;;;;;;6214430;23;20445;-85
2023/09/05 00:26:52;;;;;;;3.25;2.13;;;;;;;;;;6242406;23;20416;-86
2023/09/05 00:29:21;;;;;;;4.50;2.50;;;;;;;;;;6214946;23;20012;-85
2023/09/05 00:31:47;;;;;;;2.90;2.47;;;;;;;;;;6216218;23;20008;-85
2023/09/05 00:34:14;;;;;;;3.10;2.50;;;;;;;;;;6213907;23;20012;-85
2023/09/05 00:36:40;;;;;;;2.95;2.28;;;;;;;;;;6215431;23;20099;-85
2023/09/05 00:39:07;;;;;;;3.67;2.42;;;;;;;;;;6241535;23;20012;-85
2023/09/05 00:41:34;;;;;;;2.70;2.33;;;;;;;;;;6242428;23;20070;-85
2023/09/05 00:44:00;;;;;;;3.83;2.80;;;;;;;;;;6214571;23;20016;-85
2023/09/05 00:46:28;;;;;;;3.45;2.70;;;;;;;;;;6242577;23;20008;-86
2023/09/05 00:48:57;;;;;;;3.60;2.58;;;;;;;;;;6240530;23;20013;-86
2023/09/05 00:51:23;;;;;;;3.70;2.80;;;;;;;;;;6241864;23;20012;-85
2023/09/05 00:53:50;;;;;;;3.92;2.95;;;;;;;;;;6242494;23;20074;-87
2023/09/05 00:56:16;;;;;;;4.28;2.42;;;;;;;;;;6241407;23;20103;-85
2023/09/05 00:58:42;;;;;;;7.47;2.90;;;;;;;;;;6214998;23;20087;-85
2023/09/05 01:01:08;;;;;;;3.40;2.90;;;;;;;;;;6214008;23;20016;-85
2023/09/05 01:03:34;;;;;;;3.22;2.40;;;;;;;;;;6240702;23;20012;-86
2023/09/05 01:06:05;;;;;;;3.33;2.40;;;;;;;;;;6214312;23;20012;-85
2023/09/05 01:08:32;;;;;;;2.60;2.28;;;;;;;;;;6242139;23;20008;-85
2023/09/05 01:10:58;;;;;;;3.97;2.92;;;;;;;;;;6214445;23;20016;-87
2023/09/05 01:13:25;;;;;;;4.35;3.08;;;;;;;;;;6241558;23;20336;-85
2023/09/05 01:15:51;;;;;;;7.60;3.15;;;;;;;;;;6214466;23;20043;-85
2023/09/05 01:18:17;;;;;;;4.00;3.10;;;;;;;;;;6213956;23;20016;-85
2023/09/05 01:20:53;;;;;;;5.88;2.85;;;;;;;;;;6214263;23;20008;-85
2023/09/05 01:23:22;;;;;;;4.75;2.35;;;;;;;;;;6214168;23;20016;-86
2023/09/05 01:25:48;;;;;;;4.22;2.78;;;;;;;;;;6241844;23;20012;-85
2023/09/05 01:28:14;;;;;;;4.35;2.97;;;;;;;;;;6213357;23;20019;-86
2023/09/05 01:30:41;;;;;;;4.82;2.85;;;;;;;;;;6213376;23;20012;-85
2023/09/05 01:33:08;;;;;;;3.40;2.83;;;;;;;;;;6213582;23;20388;-85
2023/09/05 01:35:35;;;;;;;4.75;3.13;;;;;;;;;;6214639;23;20020;-85
2023/09/05 01:38:01;;;;;;;3.13;2.83;;;;;;;;;;6213471;23;20012;-86
2023/09/05 01:40:27;;;;;;;3.45;3.00;;;;;;;;;;6240976;23;20042;-85
2023/09/05 01:42:53;;;;;;;4.18;3.17;;;;;;;;;;6214230;23;20016;-85
2023/09/05 01:45:19;;;;;;;3.58;2.55;;;;;;;;;;6213855;23;20012;-85
2023/09/05 01:47:45;;;;;;;3.17;2.75;;;;;;;;;;6241056;23;20020;-86
2023/09/05 01:50:11;;;;;;;4.78;3.25;;;;;;;;;;6187438;23;20341;-85
2023/09/05 01:52:37;;;;;;;4.47;3.20;;;;;;;;;;6241844;23;20024;-85
2023/09/05 01:55:03;;;;;;;4.07;3.25;;;;;;;;;;6240653;23;20091;-86
2023/09/05 01:57:29;;;;;;;4.35;3.17;;;;;;;;;;6208492;23;20657;-85
2023/09/05 01:59:55;;;;;;;4.28;3.22;;;;;;;;;;6207719;23;20027;-85
2023/09/05 02:02:21;;;;;;;5.03;3.70;;;;;;;;;;6208924;23;20016;-85
2023/09/05 02:04:47;;;;;;;5.32;3.55;;;;;;;;;;6210611;23;20009;-86
2023/09/05 02:07:13;;;;;;;4.22;3.20;;;;;;;;;;6208395;23;20013;-85
2023/09/05 02:09:39;;;;;;;6.18;3.55;;;;;;;;;;6211463;23;20019;-85
2023/09/05 02:12:05;;;;;;;5.95;3.78;;;;;;;;;;6210285;23;20088;-85
2023/09/05 02:14:32;;;;;;;4.38;3.88;;;;;;;;;;6208136;23;20044;-85
2023/09/05 02:16:58;;;;;;;5.38;4.15;;;;;;;;;;6208901;23;20012;-85
2023/09/05 02:19:26;;;;;;;5.47;3.80;;;;;;;;;;6208827;23;20338;-85
2023/09/05 02:21:53;;;;;;;5.00;3.97;;;;;;;;;;6209683;23;20009;-85
2023/09/05 02:24:19;;;;;;;5.45;3.92;;;;;;;;;;6208699;23;20079;-85
2023/09/05 02:26:45;;;;;;;5.97;4.30;;;;;;;;;;6211106;23;20016;-85
2023/09/05 02:29:11;;;;;;;7.60;4.18;;;;;;;;;;6208006;23;20031;-85
2023/09/05 02:31:37;;;;;;;5.03;4.15;;;;;;;;;;6208856;23;20031;-85
2023/09/05 02:34:03;;;;;;;5.70;4.32;;;;;;;;;;6210272;23;20012;-86
2023/09/05 02:36:30;;;;;;;5.70;4.45;;;;;;;;;;6211722;23;20434;-86
2023/09/05 02:38:58;;;;;;;6.35;4.82;;;;;;;;;;6211170;23;20016;-85
2023/09/05 02:41:24;;;;;;;6.07;4.57;;;;;;;;;;6211447;23;20040;-84
2023/09/05 02:43:50;;;;;;;5.25;4.05;;;;;;;;;;6210181;23;20048;-85
2023/09/05 02:46:16;;;;;;;4.45;4.05;;;;;;;;;;6212513;23;20020;-86
2023/09/05 02:48:43;;;;;;;4.38;3.97;;;;;;;;;;6213218;23;20087;-85
2023/09/05 02:51:10;;;;;;;4.30;3.90;;;;;;;;;;6211238;23;20401;-85
2023/09/05 02:53:36;;;;;;;6.47;5.03;;;;;;;;;;6213289;23;20082;-86
2023/09/05 02:56:02;;;;;;;6.80;4.40;;;;;;;;;;6223361;23;20017;-84
2023/09/05 02:58:28;;;;;;;5.95;4.40;;;;;;;;;;6214501;23;20031;-85
2023/09/05 03:01:01;;;;;;;4.68;4.20;;;;;;;;;;6242262;23;20343;-85
2023/09/05 03:03:27;;;;;;;5.53;4.40;;;;;;;;;;6242101;23;20539;-86
2023/09/05 03:05:53;;;;;;;6.15;4.15;;;;;;;;;;6214974;23;20016;-86
2023/09/05 03:08:20;;;;;;;6.47;4.22;;;;;;;;;;6215371;23;20015;-85
2023/09/05 03:10:50;;;;;;;5.10;3.88;;;;;;;;;;6242762;23;20118;-85
2023/09/05 03:13:16;;;;;;;;;;;;;;;;;;6214543;23;20023;-84
2023/09/05 03:15:42;;;;;;;4.63;3.70;;;;;;;;;;6215362;23;20244;-86
2023/09/05 03:18:08;;;;;;;4.13;3.35;;;;;;;;;;6239870;23;20020;-85
2023/09/05 03:20:34;;;;;;;6.50;3.92;;;;;;;;;;6240153;23;20008;-86
2023/09/05 03:23:00;;;;;;;5.90;4.32;;;;;;;;;;6241887;23;20012;-86
2023/09/05 03:25:26;;;;;;;4.80;3.83;;;;;;;;;;6215745;23;20049;-85
2023/09/05 03:27:52;;;;;;;5.50;4.47;;;;;;;;;;6241493;23;20325;-86
2023/09/05 03:30:18;;;;;;;5.63;4.30;;;;;;;;;;6241903;23;20008;-86
2023/09/05 03:32:44;;;;;;;5.80;5.03;;;;;;;;;;6215377;23;20020;-85
2023/09/05 03:35:10;;;;;;;5.20;4.15;;;;;;;;;;6215153;23;20401;-86
2023/09/05 03:37:36;;;;;;;5.03;4.45;;;;;;;;;;6242330;23;20023;-85
2023/09/05 03:40:02;;;;;;;5.75;4.15;;;;;;;;;;6242284;23;20012;-85
2023/09/05 03:42:28;;;;;;;5.88;4.65;;;;;;;;;;6241763;23;20099;-85
2023/09/05 03:44:54;;;;;;;5.13;3.92;;;;;;;;;;6214952;23;20016;-86
2023/09/05 03:47:20;;;;;;;5.90;4.75;;;;;;;;;;6215164;23;20087;-86
2023/09/05 03:49:46;;;;;;;5.55;4.57;;;;;;;;;;6241049;23;20012;-85
2023/09/05 03:52:12;;;;;;;5.68;4.38;;;;;;;;;;6240500;23;20023;-85
2023/09/05 03:54:38;;;;;;;6.50;3.80;;;;;;;;;;6242691;23;20012;-85
2023/09/05 03:57:04;;;;;;;4.93;3.40;;;;;;;;;;6240663;22;20024;-85
2023/09/05 03:59:31;;;;;;;5.35;4.22;;;;;;;;;;6242084;23;20046;-85
2023/09/05 04:01:57;;;;;;;8.55;4.75;;;;;;;;;;6214812;23;20016;-85
2023/09/05 04:04:23;;;;;;;5.40;4.55;;;;;;;;;;6214418;23;20020;-85
2023/09/05 04:06:49;;;;;;;5.25;4.18;;;;;;;;;;6215335;23;20012;-85
2023/09/05 04:09:15;;;;;;;5.13;3.70;;;;;;;;;;6241453;23;20051;-85
2023/09/05 04:11:41;;;;;;;6.43;4.05;;;;;;;;;;6242278;23;20271;-86
2023/09/05 04:14:07;;;;;;;5.75;3.85;;;;;;;;;;6241330;23;20012;-85
2023/09/05 04:16:33;;;;;;;6.13;4.43;;;;;;;;;;6215070;23;20012;-85
2023/09/05 04:18:59;;;;;;;6.05;4.63;;;;;;;;;;6214507;23;20505;-85
2023/09/05 04:21:25;;;;;;;6.45;4.03;;;;;;;;;;6242184;23;20419;-85
2023/09/05 04:23:51;;;;;;;5.55;4.55;;;;;;;;;;6215478;23;20019;-85
2023/09/05 04:26:18;;;;;;;5.22;4.30;;;;;;;;;;6241275;23;20043;-85
2023/09/05 04:28:44;;;;;;;5.65;4.70;;;;;;;;;;6215203;23;20258;-85
2023/09/05 04:31:10;;;;;;;6.63;4.65;;;;;;;;;;6241057;23;20012;-85
2023/09/05 04:33:40;;;;;;;6.05;4.63;;;;;;;;;;6241780;23;20027;-85
2023/09/05 04:36:09;;;;;;;5.18;4.20;;;;;;;;;;6241639;23;20019;-84
2023/09/05 04:38:35;;;;;;;5.90;4.22;;;;;;;;;;6189555;23;20346;-84
2023/09/05 04:41:01;;;;;;;5.70;4.10;;;;;;;;;;6241015;23;20023;-85
2023/09/05 04:43:28;;;;;;;5.65;4.47;;;;;;;;;;6241821;23;20116;-85
2023/09/05 04:45:54;;;;;;;6.43;4.30;;;;;;;;;;6241423;23;20043;-85
2023/09/05 04:48:20;;;;;;;5.22;3.92;;;;;;;;;;6241651;23;20578;-85
2023/09/05 04:50:46;;;;;;;6.40;3.88;;;;;;;;;;6242633;23;20012;-85
2023/09/05 04:53:12;;;;;;;5.43;4.50;;;;;;;;;;6240701;23;20020;-85
2023/09/05 04:55:42;;;;;;;6.38;4.20;;;;;;;;;;6189519;23;20020;-85
2023/09/05 04:58:08;;;;;;;6.78;4.25;;;;;;;;;;6240636;23;20078;-85
2023/09/05 05:00:34;;;;;;;5.97;4.30;;;;;;;;;;6241107;23;20022;-85
2023/09/05 05:03:00;;;;;;;6.07;4.93;;;;;;;;;;6240992;23;20012;-84
2023/09/05 05:05:27;;;;;;;7.30;4.80;;;;;;;;;;6241555;23;20303;-86
2023/09/05 05:07:53;;;;;;;5.72;4.43;;;;;;;;;;6213759;23;20039;-85
2023/09/05 05:10:20;;;;;;;5.65;4.47;;;;;;;;;;6214541;23;20042;-86
2023/09/05 05:12:46;;;;;;;7.07;4.97;;;;;;;;;;6241462;23;20016;-85
2023/09/05 05:15:12;;;;;;;5.07;3.97;;;;;;;;;;6212721;23;20016;-85
2023/09/05 05:17:39;;;;;;;5.65;4.28;;;;;;;;;;6241831;23;20072;-86
2023/09/05 05:20:05;;;;;;;7.15;4.10;;;;;;;;;;6214012;23;20346;-86
2023/09/05 05:22:31;;;;;;;5.68;4.97;;;;;;;;;;6213630;23;20066;-85
2023/09/05 05:24:58;;;;;;;7.20;4.50;;;;;;;;;;6213702;23;20015;-85
2023/09/05 05:27:24;;;;;;;7.15;4.78;;;;;;;;;;6214129;23;20444;-85
2023/09/05 05:29:50;;;;;;;8.85;4.70;;;;;;;;;;6213068;23;20066;-85
2023/09/05 05:32:16;;;;;;;7.50;4.80;;;;;;;;;;6240707;23;20016;-85
2023/09/05 05:34:42;;;;;;;6.13;4.90;;;;;;;;;;6242140;23;20095;-85
2023/09/05 05:37:08;;;;;;;7.60;4.47;;;;;;;;;;6210802;23;20034;-86
2023/09/05 05:39:34;;;;;;;5.43;4.53;;;;;;;;;;6212840;23;20013;-84
2023/09/05 05:42:00;;;;;;;6.55;4.95;;;;;;;;;;6239886;23;20276;-85
2023/09/05 05:44:26;;;;;;;7.70;4.32;;;;;;;;;;6213660;23;20023;-86
2023/09/05 05:46:56;;;;;;;7.00;4.95;;;;;;;;;;6240596;23;20457;-87
2023/09/05 05:49:23;;;;;;;6.63;5.05;;;;;;;;;;6240843;23;20058;-85
2023/09/05 05:51:50;;;;;;;6.53;4.40;;;;;;;;;;6212122;23;20051;-85
2023/09/05 05:54:16;;;;;;;6.55;4.85;;;;;;;;;;6239712;23;20016;-86
2023/09/05 05:56:42;;;;;;;7.03;4.43;;;;;;;;;;6214571;23;20021;-88
2023/09/05 05:59:08;;;;;;;6.60;4.78;;;;;;;;;;6213975;23;20047;-87
2023/09/05 06:01:35;;;;;;;6.38;4.80;;;;;;;;;;6189118;23;20016;-86
2023/09/05 06:04:01;;;;;;;7.32;4.22;;;;;;;;;;6213874;23;20026;-86
2023/09/05 06:06:27;;;;;;;6.18;4.35;;;;;;;;;;6240624;23;20394;-86
2023/09/05 06:08:53;;;;;;;6.38;4.70;;;;;;;;;;6241266;23;20377;-86
2023/09/05 06:11:19;;;;;;;4.95;4.13;;;;;;;;;;6214242;23;20015;-89
2023/09/05 06:13:45;;;;;;;5.35;4.07;;;;;;;;;;6240760;23;20509;-86
2023/09/05 06:16:11;;;;;;;8.20;5.82;;;;;;;;;;6212435;23;20019;-86
2023/09/05 06:18:37;;;;;;;6.03;4.57;;;;;;;;;;6214324;23;20024;-85
2023/09/05 06:21:03;;;;;;;5.72;4.32;;;;;;;;;;6212293;23;20020;-85
2023/09/05 06:23:30;;;;;;;5.05;3.92;;;;;;;;;;6240489;23;20368;-86
2023/09/05 06:25:56;;;;;;;7.28;3.95;;;;;;;;;;6240318;23;20444;-85
2023/09/05 06:28:22;;;;;;;4.82;3.80;;;;;;;;;;6241105;23;20357;-86
2023/09/05 06:30:48;;;;;;;4.07;3.67;;;;;;;;;;6214216;23;20022;-85
2023/09/05 06:33:14;;;;;;;6.68;3.80;;;;;;;;;;6212985;23;20059;-85
2023/09/05 06:35:40;;;;;;;5.18;3.90;;;;;;;;;;6240284;23;20012;-87
2023/09/05 06:38:08;;;;;;;5.55;3.88;;;;;;;;;;6213068;23;20016;-86
2023/09/05 06:40:34;;;;;;;4.50;3.70;;;;;;;;;;6239855;23;20019;-87
2023/09/05 06:43:00;;;;;;;5.93;4.13;;;;;;;;;;6238569;23;20013;-86
2023/09/05 06:45:26;;;;;;;4.72;3.53;;;;;;;;;;6213104;23;20445;-89
2023/09/05 06:47:52;;;;;;;5.15;3.78;;;;;;;;;;6240223;23;20013;-85
2023/09/05 06:50:18;;;;;;;4.72;3.75;;;;;;;;;;6211499;23;20442;-85
2023/09/05 06:52:46;;;;;;;4.95;3.63;;;;;;;;;;6213660;23;20345;-86
2023/09/05 06:55:12;;;;;;;5.63;3.58;;;;;;;;;;6237595;23;20023;-86
2023/09/05 06:57:39;;;;;;;5.47;3.85;;;;;;;;;;6239337;23;20389;-85
2023/09/05 07:00:05;;;;;;;4.57;3.72;;;;;;;;;;6239477;23;20016;-86
2023/09/05 07:02:31;;;;;;;5.10;3.95;;;;;;;;;;6213257;23;20012;-85
2023/09/05 07:04:57;;;;;;;6.70;3.88;;;;;;;;;;6238736;23;20012;-87
2023/09/05 07:07:23;;;;;;;5.38;3.83;;;;;;;;;;6240706;23;20043;-83
2023/09/05 07:09:50;;;;;;;5.03;3.60;;;;;;;;;;6212830;23;20445;-84
2023/09/05 07:12:16;;;;;;;4.13;3.28;;;;;;;;;;6211181;23;20384;-82
2023/09/05 07:14:45;;;;;;;4.30;3.65;;;;;;;;;;6239908;23;20101;-82
2023/09/05 07:17:11;;;;;;;4.82;3.15;;;;;;;;;;6239114;23;20019;-86
2023/09/05 07:19:37;;;;;;;5.00;3.38;;;;;;;;;;6213935;23;20020;-83
2023/09/05 07:22:04;;;;;;;4.32;3.28;;;;;;;;;;6242557;23;20091;-84
2023/09/05 07:24:30;;;;;;;3.63;2.97;;;;;;;;;;6242522;23;20020;-84
2023/09/05 07:26:56;;;;;;;4.43;3.28;;;;;;;;;;6215538;23;20089;-84
2023/09/05 07:29:26;;;;;;;3.30;2.97;;;;;;;;;;6242900;23;20013;-84
2023/09/05 07:31:52;;;;;;;3.30;3.00;;;;;;;;;;6242756;23;20386;-85
2023/09/05 07:34:18;;;;;;;4.22;2.90;;;;;;;;;;6241255;23;20047;-84
2023/09/05 07:36:45;;;;;;;2.85;2.55;;;;;;;;;;6243134;23;20020;-84
2023/09/05 07:39:11;;;;;;;6.35;2.78;;;;;;;;;;6214889;23;20012;-83
2023/09/05 07:41:38;;;;;;;3.83;2.63;;;;;;;;;;6243307;23;20008;-84
2023/09/05 07:44:04;;;;;;;4.18;2.78;;;;;;;;;;6242386;23;20016;-83
2023/09/05 07:46:30;;;;;;;8.38;5.10;;;;;;;;;;6242788;23;20063;-83
2023/09/05 07:48:56;;;;;;;3.80;2.80;;;;;;;;;;6241806;23;20224;-84
2023/09/05 07:51:22;;;;;;;4.50;2.85;;;;;;;;;;6215356;23;20093;-83
2023/09/05 07:53:50;;;;;;;3.63;2.35;;;;;;;;;;6242954;23;20012;-83
2023/09/05 07:56:16;;;;;;;3.78;2.60;;;;;;;;;;6215170;23;20369;-84
2023/09/05 07:58:42;;;;;;;3.08;2.55;;;;;;;;;;6216098;23;20027;-84
2023/09/05 08:01:09;;;;;;;3.50;2.40;;;;;;;;;;6242040;23;20066;-83
2023/09/05 08:03:36;;;;;;;3.85;2.60;;;;;;;;;;6242096;23;20016;-84
2023/09/05 08:06:03;;;;;;;3.28;2.25;;;;;;;;;;6215245;23;20062;-84
2023/09/05 08:08:29;;;;;;;3.13;2.47;;;;;;;;;;6215208;23;20497;-83
2023/09/05 08:10:55;;;;;;;3.75;2.45;;;;;;;;;;6242414;23;20013;-83
2023/09/05 08:13:21;;;;;;;2.50;2.03;;;;;;;;;;6242548;23;20378;-84
2023/09/05 08:15:47;;;;;;;2.70;2.50;;;;;;;;;;6242969;23;20023;-83
2023/09/05 08:18:13;;;;;;;3.22;2.00;;;;;;;;;;6241344;23;20016;-83
2023/09/05 08:20:39;;;;;;;2.20;2.00;;;;;;;;;;6242437;23;20047;-84
2023/09/05 08:23:06;;;;;;;2.97;1.88;;;;;;;;;;6214674;23;20070;-84
2023/09/05 08:25:32;;;;;;;2.63;1.90;;;;;;;;;;6242429;23;20047;-83
2023/09/05 08:27:58;;;;;;;2.80;2.22;;;;;;;;;;6241776;23;20019;-84
2023/09/05 08:30:24;;;;;;;2.63;2.05;;;;;;;;;;6242310;23;20346;-83
2023/09/05 08:32:55;;;;;;;2.13;1.45;;;;;;;;;;6241453;23;20476;-83
2023/09/05 08:35:22;;;;;;;2.80;1.90;;;;;;;;;;6215194;23;20091;-84
2023/09/05 08:37:48;;;;;;;7.85;2.03;;;;;;;;;;6242545;23;20039;-84
2023/09/05 08:40:15;;;;;;;2.05;1.58;;;;;;;;;;6215063;23;20051;-83
2023/09/05 08:42:47;;;;;;;2.53;1.80;;;;;;;;;;6190342;23;20016;-84
2023/09/05 08:45:16;;;;;;;2.05;1.85;;;;;;;;;;6241574;23;20012;-83
2023/09/05 08:47:42;;;;;;;2.53;1.95;;;;;;;;;;6241821;23;20150;-83
2023/09/05 08:50:08;;;;;;;1.48;1.38;;;;;;;;;;6214560;23;20012;-84
2023/09/05 08:52:37;;;;;;;2.00;1.80;;;;;;;;;;6242333;23;20020;-83
2023/09/05 08:55:03;;;;;;;1.85;1.67;;;;;;;;;;6214607;23;20087;-84
2023/09/05 08:57:29;;;;;;;1.70;1.60;;;;;;;;;;6214956;23;20027;-85
2023/09/05 08:59:56;;;;;;;2.67;1.58;;;;;;;;;;6241244;23;20012;-87
2023/09/05 09:02:22;;;;;;;3.15;1.70;;;;;;;;;;6242001;23;20333;-84
2023/09/05 09:04:51;;;;;;;2.53;1.58;;;;;;;;;;6215436;23;20028;-86
2023/09/05 09:07:20;;;;;;;2.38;1.48;;;;;;;;;;6214102;23;20019;-85
2023/09/05 09:09:46;;;;;;;2.13;1.67;;;;;;;;;;6214809;23;20012;-83
2023/09/05 09:12:12;;;;;;;3.47;1.70;;;;;;;;;;6241036;23;20091;-86
2023/09/05 09:14:38;;;;;;;1.70;1.60;;;;;;;;;;6241598;23;20023;-83
2023/09/05 09:17:05;;;;;;;2.53;1.55;;;;;;;;;;6241492;23;20024;-85
2023/09/05 09:19:32;;;;;;;1.73;1.60;;;;;;;;;;6241865;23;20008;-84
2023/09/05 09:22:02;;;;;;;1.42;1.33;;;;;;;;;;6241499;23;20019;-83
2023/09/05 09:24:35;;;;;;;4.85;1.30;;;;;;;;;;6241060;23;20020;-83
2023/09/05 09:27:02;;;;;;;1.90;1.40;;;;;;;;;;6241180;23;20505;-86
2023/09/05 09:29:28;;;;;;;1.95;1.20;;;;;;;;;;6214217;23;20019;-83
2023/09/05 09:32:06;;;;;;;1.27;1.13;;;;;;;;;;6241664;23;20388;-87
2023/09/05 09:34:35;;;;;;;1.67;1.40;;;;;;;;;;6215228;23;20027;-86
2023/09/05 09:37:01;;;;;;;2.40;1.27;;;;;;;;;;6241131;23;20311;-85
2023/09/05 09:39:32;;;;;;;1.45;1.10;;;;;;;;;;6214797;23;20047;-85
2023/09/05 09:42:01;;;;;;;1.67;1.10;;;;;;;;;;6240384;23;20012;-84
2023/09/05 09:44:28;;;;;;;1.98;1.08;;;;;;;;;;6240882;23;20012;-84
2023/09/05 09:46:55;;;;;;;2.22;1.48;;;;;;;;;;6214513;23;20353;-84
2023/09/05 09:49:23;;;;;;;1.40;1.30;;;;;;;;;;6241881;23;20102;-89
2023/09/05 09:51:50;;;;;;;1.33;1.23;;;;;;;;;;6214787;23;20038;-83
2023/09/05 09:54:18;;;;;;;1.70;1.40;;;;;;;;;;6241030;23;20437;-85
2023/09/05 09:56:44;;;;;;;1.33;1.17;;;;;;;;;;6241527;23;20095;-86
2023/09/05 09:59:12;;;;;;;1.13;1.02;;;;;;;;;;6212984;23;20087;-83
2023/09/05 10:01:38;;;;;;;2.20;1.15;;;;;;;;;;6215337;23;20024;-84
2023/09/05 10:04:04;;;;;;;2.25;1.25;;;;;;;;;;6240850;23;20077;-83
2023/09/05 10:06:31;;;;;;;2.47;1.40;;;;;;;;;;6241435;23;20016;-90
2023/09/05 10:08:58;;;;;;;1.50;1.25;;;;;;;;;;6241153;23;20016;-83
2023/09/05 10:11:25;;;;;;;2.38;1.02;;;;;;;;;;6241389;23;20047;-84
2023/09/05 10:13:51;;;;;;;2.03;1.30;;;;;;;;;;6240724;23;20023;-84
2023/09/05 10:16:17;;;;;;;1.83;1.08;;;;;;;;;;6241174;23;20391;-84
2023/09/05 10:18:44;;;;;;;2.58;1.25;;;;;;;;;;6241894;23;20024;-84
2023/09/05 10:21:11;;;;;;;1.58;1.20;;;;;;;;;;6213466;23;20397;-84
2023/09/05 10:23:37;;;;;;;1.23;1.13;;;;;;;;;;6241373;23;20013;-84
2023/09/05 10:26:05;;;;;;;1.80;1.13;;;;;;;;;;6214048;23;20084;-85
2023/09/05 10:28:32;;;;;;;3.42;1.52;;;;;;;;;;6188468;23;20011;-84
2023/09/05 10:31:06;;;;;;;1.38;1.25;;;;;;;;;;6213595;23;20009;-83
2023/09/05 10:33:39;;;;;;;1.25;1.15;;;;;;;;;;6241410;23;20048;-84
2023/09/05 10:36:06;;;;;;;1.52;1.20;;;;;;;;;;6214054;23;20020;-83
2023/09/05 10:38:41;;;;;;;2.53;1.23;;;;;;;;;;6214220;23;20016;-84
2023/09/05 10:41:27;;;;;;;2.53;2.05;;;;;;;;;;6213856;23;20017;-83
2023/09/05 10:43:56;;;;;;;1.35;1.25;;;;;;;;;;6213650;23;20012;-84
2023/09/05 10:46:22;;;;;;;1.80;1.30;;;;;;;;;;6214361;23;20143;-85
2023/09/05 10:48:48;;;;;;;1.60;1.13;;;;;;;;;;6214717;23;20051;-83
2023/09/05 10:51:15;;;;;;;1.88;1.40;;;;;;;;;;6213950;23;20020;-85
2023/09/05 10:53:42;;;;;;;2.38;1.40;;;;;;;;;;6242101;23;20066;-83
2023/09/05 10:56:27;;;;;;;2.00;1.48;;;;;;;;;;6241837;23;20016;-90
2023/09/05 10:58:56;;;;;;;1.23;0.93;;;;;;;;;;6242898;23;20070;-86
2023/09/05 11:01:32;;;;;;;1.90;1.15;;;;;;;;;;6243401;23;20008;-82
2023/09/05 11:04:03;;;;;;;2.03;0.93;;;;;;;;;;6216115;23;20020;-84
2023/09/05 11:06:30;;;;;;;0.75;0.75;;;;;;;;;;6243489;23;20208;-82
2023/09/05 11:09:01;;;;;;;1.80;1.20;;;;;;;;;;6242816;23;20012;-86
2023/09/05 11:11:28;;;;;;;2.00;1.13;;;;;;;;;;6242641;23;20016;-83
2023/09/05 11:13:54;;;;;;;2.58;0.90;;;;;;;;;;6241383;23;20016;-87
2023/09/05 11:16:20;;;;;;;1.67;1.10;;;;;;;;;;6241655;23;20054;-81
2023/09/05 11:18:52;;;;;;;1.08;0.88;;;;;;;;;;6241453;23;20016;-84
2023/09/05 11:21:22;;;;;;;1.42;1.33;;;;;;;;;;6242313;23;20091;-84
2023/09/05 11:23:55;;;;;;;1.08;0.90;;;;;;;;;;6243130;23;20035;-80
2023/09/05 11:26:21;;;;;;;1.75;0.85;;;;;;;;;;6242334;23;20012;-83
2023/09/05 11:28:50;;;;;;;1.00;0.90;;;;;;;;;;6215316;23;20442;-82
2023/09/05 11:31:16;;;;;;;1.90;1.00;;;;;;;;;;6242517;23;20084;-81
2023/09/05 11:33:42;;;;;;;1.50;0.90;;;;;;;;;;6242822;23;20020;-80
2023/09/05 11:36:08;;;;;;;1.58;0.80;;;;;;;;;;6240444;23;20484;-80
2023/09/05 11:38:47;;;;;;;1.20;1.00;;;;;;;;;;6243294;23;20024;-83
2023/09/05 11:41:14;;;;;;;1.40;0.80;;;;;;;;;;6241625;23;20497;-81
2023/09/05 11:43:47;;;;;;;0.85;0.70;;;;;;;;;;6242896;23;20050;-83
2023/09/05 11:46:13;;;;;;;1.00;0.90;;;;;;;;;;6241673;23;20016;-82
2023/09/05 11:48:41;;;;;;;2.03;0.70;;;;;;;;;;6242808;23;20104;-82
2023/09/05 11:51:07;;;;;;;1.52;0.75;;;;;;;;;;6241259;23;20012;-80
2023/09/05 11:53:33;;;;;;;1.35;1.00;;;;;;;;;;6215888;23;20027;-81
2023/09/05 11:55:59;;;;;;;1.10;0.93;;;;;;;;;;6214887;23;20020;-81
2023/09/05 11:58:26;;;;;;;2.40;0.80;;;;;;;;;;6242686;23;20051;-81
2023/09/05 12:00:53;;;;;;;1.35;1.00;;;;;;;;;;6241784;23;20086;-81
2023/09/05 12:03:19;;;;;;;3.15;1.08;;;;;;;;;;6214573;23;20012;-82
2023/09/05 12:05:51;;;;;;;1.17;1.08;;;;;;;;;;6215574;23;20086;-84
2023/09/05 12:08:21;;;;;;;0.70;0.70;;;;;;;;;;6242082;23;20012;-81
2023/09/05 12:10:51;;;;;;;1.10;0.80;;;;;;;;;;6243036;23;20333;-82
2023/09/05 12:13:18;;;;;;;1.20;1.10;;;;;;;;;;6242271;23;20023;-83
2023/09/05 12:15:45;;;;;;;1.92;0.88;;;;;;;;;;6241689;23;20415;-86
2023/09/05 12:18:16;;;;;;;1.08;0.93;;;;;;;;;;6241762;23;20023;-83
2023/09/05 12:20:42;;;;;;;1.05;0.93;;;;;;;;;;6242842;23;20016;-83
2023/09/05 12:23:08;;;;;;;1.50;1.20;;;;;;;;;;6214132;23;20023;-83
2023/09/05 12:25:35;;;;;;;1.50;0.98;;;;;;;;;;6215773;23;20095;-82
2023/09/05 12:28:16;;;;;;;2.15;1.00;;;;;;;;;;6241828;23;20008;-82
2023/09/05 12:30:42;;;;;;;1.88;0.98;;;;;;;;;;6215680;23;20016;-83
2023/09/05 12:33:08;;;;;;;1.45;0.90;;;;;;;;;;6214792;23;20453;-84
2023/09/05 12:35:34;;;;;;;1.10;1.00;;;;;;;;;;6242847;23;20016;-85
2023/09/05 12:38:01;;;;;;;0.98;0.93;;;;;;;;;;6214396;23;20016;-82
2023/09/05 12:40:28;;;;;;;1.27;0.90;;;;;;;;;;6242502;23;20397;-84
2023/09/05 12:42:54;;;;;;;1.17;1.08;;;;;;;;;;6214178;23;20099;-82
2023/09/05 12:45:21;;;;;;;1.60;1.00;;;;;;;;;;6214867;23;20016;-83
2023/09/05 12:47:51;;;;;;;1.77;1.02;;;;;;;;;;6242714;23;20008;-83
2023/09/05 12:50:17;;;;;;;1.20;0.90;;;;;;;;;;6242019;23;20382;-83
2023/09/05 12:52:44;;;;;;;1.10;0.93;;;;;;;;;;6215026;23;20016;-84
2023/09/05 12:55:13;;;;;;;1.00;0.90;;;;;;;;;;6241070;23;20023;-85
2023/09/05 12:57:40;;;;;;;0.80;0.77;;;;;;;;;;6214535;23;20082;-83
2023/09/05 13:00:07;;;;;;;1.90;0.98;;;;;;;;;;6240470;23;20023;-83
2023/09/05 13:02:34;;;;;;;0.75;0.73;;;;;;;;;;6214625;23;20050;-84
2023/09/05 13:05:00;;;;;;;3.75;1.10;;;;;;;;;;6214767;23;20012;-83
2023/09/05 13:07:26;;;;;;;1.50;0.95;;;;;;;;;;6213746;23;20016;-82
2023/09/05 13:09:53;;;;;;;1.10;0.90;;;;;;;;;;6214711;23;20016;-84
2023/09/05 13:12:20;;;;;;;2.03;1.00;;;;;;;;;;6215137;23;20412;-84
2023/09/05 13:14:46;;;;;;;1.77;0.90;;;;;;;;;;6214739;23;20020;-87
2023/09/05 13:17:12;;;;;;;1.27;1.15;;;;;;;;;;6239815;23;20411;-83
2023/09/05 13:19:38;;;;;;;1.00;0.90;;;;;;;;;;6189501;23;20012;-82
2023/09/05 13:22:04;;;;;;;0.98;0.70;;;;;;;;;;6214165;23;20016;-82
2023/09/05 13:24:30;;;;;;;1.63;1.15;;;;;;;;;;6240897;23;20015;-82
2023/09/05 13:26:58;;;;;;;1.00;0.90;;;;;;;;;;6214378;23;20020;-81
2023/09/05 13:29:24;;;;;;;1.80;0.90;;;;;;;;;;6241437;23;20019;-82
2023/09/05 13:31:50;;;;;;;0.82;0.80;;;;;;;;;;6241182;23;20087;-87
2023/09/05 13:34:17;;;;;;;1.52;0.95;;;;;;;;;;6241409;23;20334;-84
2023/09/05 13:36:43;;;;;;;1.00;0.90;;;;;;;;;;6188282;23;20020;-84
2023/09/05 13:39:09;;;;;;;1.63;0.98;;;;;;;;;;6240682;23;20020;-82
2023/09/05 13:41:35;;;;;;;1.20;1.10;;;;;;;;;;6242627;23;20417;-83
2023/09/05 13:44:02;;;;;;;1.50;1.13;;;;;;;;;;6241437;23;20043;-83
2023/09/05 13:46:28;;;;;;;1.40;1.02;;;;;;;;;;6214407;23;20080;-83
2023/09/05 13:48:54;;;;;;;2.40;1.00;;;;;;;;;;6214281;23;20020;-82
2023/09/05 13:51:22;;;;;;;0.90;0.90;;;;;;;;;;6239750;23;20012;-83
2023/09/05 13:53:54;;;;;;;1.67;1.10;;;;;;;;;;6189373;23;20170;-82
2023/09/05 13:56:22;;;;;;;1.83;1.00;;;;;;;;;;6214694;23;20046;-83
2023/09/05 13:58:48;;;;;;;1.92;1.02;;;;;;;;;;6214792;23;20012;-83
2023/09/05 14:01:15;;;;;;;1.30;0.90;;;;;;;;;;6214179;23;20032;-82
2023/09/05 14:03:41;;;;;;;1.33;0.80;;;;;;;;;;6214701;23;20083;-87
2023/09/05 14:06:10;;;;;;;0.95;0.88;;;;;;;;;;6213135;23;20016;-83
2023/09/05 14:08:36;;;;;;;1.00;0.90;;;;;;;;;;6213954;23;20012;-87
2023/09/05 14:11:02;;;;;;;3.22;0.82;;;;;;;;;;6213988;23;20338;-82
2023/09/05 14:13:31;;;;;;;1.38;0.90;;;;;;;;;;6240883;23;20465;-89
2023/09/05 14:15:59;;;;;;;1.27;0.90;;;;;;;;;;6213672;23;20023;-83
2023/09/05 14:18:25;;;;;;;1.52;1.10;;;;;;;;;;6213693;23;20055;-83
2023/09/05 14:20:51;;;;;;;1.40;0.90;;;;;;;;;;6213057;23;20016;-83
2023/09/05 14:23:17;;;;;;;1.98;0.80;;;;;;;;;;6239758;23;20357;-83
2023/09/05 14:25:44;;;;;;;0.85;0.65;;;;;;;;;;6240768;23;20449;-84
2023/09/05 14:28:10;;;;;;;2.50;1.10;;;;;;;;;;6240849;23;20016;-83
2023/09/05 14:30:36;;;;;;;2.40;0.90;;;;;;;;;;6217950;23;20384;-85
2023/09/05 14:33:05;;;;;;;0.98;0.88;;;;;;;;;;6242931;23;20020;-82
2023/09/05 14:35:31;;;;;;;0.90;0.70;;;;;;;;;;6215396;23;20070;-83
2023/09/05 14:37:57;;;;;;;1.25;0.98;;;;;;;;;;6217217;23;20020;-84
2023/09/05 14:40:24;;;;;;;2.17;0.80;;;;;;;;;;6244218;23;20016;-86
2023/09/05 14:42:50;;;;;;;0.93;0.82;;;;;;;;;;6244045;23;21899;-84